sensor_id;sensor_type;location;lat;lon;timestamp;pressure;altitude;pressure_sealevel;temperature;humidity
62124;BME280;48110;47.532;19.078;2023-06-19T00:00:09;100286.94;;;16.44;100.00
62124;BME280;48110;47.532;19.078;2023-06-19T00:03:20;100287.38;;;16.41;100.00
62124;BME280;48110;47.532;19.078;2023-06-19T00:06:26;100287.53;;;16.46;100.00
62124;BME280;48110;47.532;19.078;2023-06-19T00:09:35;100288.56;;;16.51;100.00
62124;BME280;48110;47.532;19.078;2023-06-19T00:12:40;100287.09;;;16.56;100.00
62124;BME280;48110;47.532;19.078;2023-06-19T00:15:50;100292.69;;;16.61;100.00
62124;BME280;48110;47.532;19.078;2023-06-19T00:18:57;100293.31;;;16.63;100.00
62124;BME280;48110;47.532;19.078;2023-06-19T00:22:05;100292.28;;;16.64;100.00
62124;BME280;48110;47.532;19.078;2023-06-19T00:25:10;100289.62;;;16.64;100.00
62124;BME280;48110;47.532;19.078;2023-06-19T00:28:19;100291.91;;;16.60;100.00
62124;BME280;48110;47.532;19.078;2023-06-19T00:31:29;100286.91;;;16.57;100.00
62124;BME280;48110;47.532;19.078;2023-06-19T00:34:39;100286.72;;;16.52;100.00
62124;BME280;48110;47.532;19.078;2023-06-19T00:37:49;100281.37;;;16.45;100.00
62124;BME280;48110;47.532;19.078;2023-06-19T00:40:55;100279.72;;;16.38;100.00
62124;BME280;48110;47.532;19.078;2023-06-19T00:44:01;100277.87;;;16.32;100.00
62124;BME280;48110;47.532;19.078;2023-06-19T00:47:08;100279.12;;;16.23;100.00
62124;BME280;48110;47.532;19.078;2023-06-19T00:50:17;100282.84;;;16.15;100.00
62124;BME280;48110;47.532;19.078;2023-06-19T00:53:24;100278.31;;;16.09;100.00
62124;BME280;48110;47.532;19.078;2023-06-19T00:56:32;100277.91;;;16.05;100.00
62124;BME280;48110;47.532;19.078;2023-06-19T00:59:38;100280.97;;;16.02;100.00
62124;BME280;48110;47.532;19.078;2023-06-19T01:02:46;100278.72;;;15.99;100.00
62124;BME280;48110;47.532;19.078;2023-06-19T01:05:54;100277.69;;;15.94;100.00
62124;BME280;48110;47.532;19.078;2023-06-19T01:09:07;100277.47;;;15.89;100.00
62124;BME280;48110;47.532;19.078;2023-06-19T01:12:20;100274.59;;;15.84;100.00
62124;BME280;48110;47.532;19.078;2023-06-19T01:15:34;100270.47;;;15.81;100.00
62124;BME280;48110;47.532;19.078;2023-06-19T01:18:45;100264.72;;;15.78;100.00
62124;BME280;48110;47.532;19.078;2023-06-19T01:21:52;100264.09;;;15.76;100.00
62124;BME280;48110;47.532;19.078;2023-06-19T01:24:58;100276.03;;;15.73;100.00
62124;BME280;48110;47.532;19.078;2023-06-19T01:28:09;100286.72;;;15.73;100.00
62124;BME280;48110;47.532;19.078;2023-06-19T01:31:30;100276.88;;;15.87;100.00
62124;BME280;48110;47.532;19.078;2023-06-19T01:34:40;100268.81;;;15.80;100.00
62124;BME280;48110;47.532;19.078;2023-06-19T01:37:48;100272.53;;;15.73;100.00
62124;BME280;48110;47.532;19.078;2023-06-19T01:40:55;100263.84;;;15.64;100.00
62124;BME280;48110;47.532;19.078;2023-06-19T01:44:02;100259.94;;;15.60;100.00
62124;BME280;48110;47.532;19.078;2023-06-19T01:47:12;100257.87;;;15.55;100.00
62124;BME280;48110;47.532;19.078;2023-06-19T01:50:23;100257.63;;;15.50;100.00
62124;BME280;48110;47.532;19.078;2023-06-19T01:53:30;100257.41;;;15.45;100.00
62124;BME280;48110;47.532;19.078;2023-06-19T01:56:39;100252.88;;;15.46;100.00
62124;BME280;48110;47.532;19.078;2023-06-19T01:59:45;100257.81;;;15.42;100.00
62124;BME280;48110;47.532;19.078;2023-06-19T02:02:53;100261.16;;;15.51;100.00
62124;BME280;48110;47.532;19.078;2023-06-19T02:06:01;100267.28;;;15.45;100.00
62124;BME280;48110;47.532;19.078;2023-06-19T02:09:08;100269.53;;;15.41;100.00
62124;BME280;48110;47.532;19.078;2023-06-19T02:12:15;100267.28;;;15.38;100.00
62124;BME280;48110;47.532;19.078;2023-06-19T02:15:21;100268.31;;;15.44;100.00
62124;BME280;48110;47.532;19.078;2023-06-19T02:18:28;100266.97;;;15.68;100.00
62124;BME280;48110;47.532;19.078;2023-06-19T02:21:35;100269.62;;;15.61;100.00
62124;BME280;48110;47.532;19.078;2023-06-19T02:24:43;100273.12;;;15.68;100.00
62124;BME280;48110;47.532;19.078;2023-06-19T02:27:52;100266.16;;;15.80;100.00
62124;BME280;48110;47.532;19.078;2023-06-19T02:31:00;100266.34;;;15.79;100.00
62124;BME280;48110;47.532;19.078;2023-06-19T02:34:09;100270.87;;;15.72;100.00
62124;BME280;48110;47.532;19.078;2023-06-19T02:37:16;100267.19;;;15.73;100.00
62124;BME280;48110;47.532;19.078;2023-06-19T02:40:23;100263.03;;;15.70;100.00
62124;BME280;48110;47.532;19.078;2023-06-19T02:43:31;100276.19;;;15.65;100.00
62124;BME280;48110;47.532;19.078;2023-06-19T02:46:43;100277.59;;;15.48;100.00
62124;BME280;48110;47.532;19.078;2023-06-19T02:49:48;100281.25;;;15.40;100.00
62124;BME280;48110;47.532;19.078;2023-06-19T02:52:55;100275.06;;;15.33;100.00
62124;BME280;48110;47.532;19.078;2023-06-19T02:56:00;100275.91;;;15.40;100.00
62124;BME280;48110;47.532;19.078;2023-06-19T02:59:08;100283.53;;;15.43;100.00
62124;BME280;48110;47.532;19.078;2023-06-19T03:02:14;100287.44;;;15.34;100.00
62124;BME280;48110;47.532;19.078;2023-06-19T03:05:21;100284.75;;;15.41;100.00
62124;BME280;48110;47.532;19.078;2023-06-19T03:08:29;100281.47;;;15.39;100.00
62124;BME280;48110;47.532;19.078;2023-06-19T03:11:41;100284.16;;;15.39;100.00
62124;BME280;48110;47.532;19.078;2023-06-19T03:14:46;100285.81;;;15.46;100.00
62124;BME280;48110;47.532;19.078;2023-06-19T03:17:55;100282.50;;;15.44;100.00
62124;BME280;48110;47.532;19.078;2023-06-19T03:21:01;100284.56;;;15.42;100.00
62124;BME280;48110;47.532;19.078;2023-06-19T03:24:07;100295.13;;;15.57;100.00
62124;BME280;48110;47.532;19.078;2023-06-19T03:27:16;100301.28;;;15.57;100.00
62124;BME280;48110;47.532;19.078;2023-06-19T03:30:23;100312.44;;;15.68;100.00
62124;BME280;48110;47.532;19.078;2023-06-19T03:33:29;100303.56;;;15.74;100.00
62124;BME280;48110;47.532;19.078;2023-06-19T03:36:36;100300.94;;;15.87;100.00
62124;BME280;48110;47.532;19.078;2023-06-19T03:39:44;100306.50;;;15.98;100.00
62124;BME280;48110;47.532;19.078;2023-06-19T03:42:52;100303.44;;;16.21;100.00
62124;BME280;48110;47.532;19.078;2023-06-19T03:46:00;100307.75;;;16.29;100.00
62124;BME280;48110;47.532;19.078;2023-06-19T03:49:06;100313.72;;;16.24;100.00
62124;BME280;48110;47.532;19.078;2023-06-19T03:52:15;100313.72;;;16.24;100.00
62124;BME280;48110;47.532;19.078;2023-06-19T03:55:22;100320.09;;;16.23;100.00
62124;BME280;48110;47.532;19.078;2023-06-19T03:58:27;100312.25;;;16.22;100.00
62124;BME280;48110;47.532;19.078;2023-06-19T04:01:34;100315.34;;;16.12;100.00
62124;BME280;48110;47.532;19.078;2023-06-19T04:04:41;100309.59;;;16.08;100.00
62124;BME280;48110;47.532;19.078;2023-06-19T04:07:46;100311.87;;;16.05;100.00
62124;BME280;48110;47.532;19.078;2023-06-19T04:10:53;100314.53;;;16.05;100.00
62124;BME280;48110;47.532;19.078;2023-06-19T04:13:58;100310.84;;;16.06;100.00
62124;BME280;48110;47.532;19.078;2023-06-19T04:17:08;100309.00;;;16.06;100.00
62124;BME280;48110;47.532;19.078;2023-06-19T04:20:16;100314.13;;;16.15;100.00
62124;BME280;48110;47.532;19.078;2023-06-19T04:23:25;100316.19;;;16.26;100.00
62124;BME280;48110;47.532;19.078;2023-06-19T04:26:30;100313.09;;;16.48;100.00
62124;BME280;48110;47.532;19.078;2023-06-19T04:29:37;100315.37;;;16.58;100.00
62124;BME280;48110;47.532;19.078;2023-06-19T04:32:43;100321.97;;;16.69;100.00
62124;BME280;48110;47.532;19.078;2023-06-19T04:35:50;100322.75;;;16.76;100.00
62124;BME280;48110;47.532;19.078;2023-06-19T04:38:58;100321.69;;;16.90;100.00
62124;BME280;48110;47.532;19.078;2023-06-19T04:42:05;100317.97;;;16.91;100.00
62124;BME280;48110;47.532;19.078;2023-06-19T04:45:11;100318.56;;;17.00;100.00
62124;BME280;48110;47.532;19.078;2023-06-19T04:48:18;100331.53;;;17.16;100.00
62124;BME280;48110;47.532;19.078;2023-06-19T04:51:25;100321.38;;;17.24;100.00
62124;BME280;48110;47.532;19.078;2023-06-19T04:54:35;100323.59;;;17.41;100.00
62124;BME280;48110;47.532;19.078;2023-06-19T04:57:43;100328.66;;;17.55;100.00
62124;BME280;48110;47.532;19.078;2023-06-19T05:00:48;100329.34;;;17.44;100.00
62124;BME280;48110;47.532;19.078;2023-06-19T05:03:56;100329.91;;;17.59;100.00
62124;BME280;48110;47.532;19.078;2023-06-19T05:07:01;100333.81;;;17.63;100.00
62124;BME280;48110;47.532;19.078;2023-06-19T05:10:08;100330.91;;;17.58;100.00
62124;BME280;48110;47.532;19.078;2023-06-19T05:13:13;100335.81;;;17.74;100.00
62124;BME280;48110;47.532;19.078;2023-06-19T05:16:18;100347.12;;;18.14;100.00
62124;BME280;48110;47.532;19.078;2023-06-19T05:19:26;100347.06;;;18.21;100.00
62124;BME280;48110;47.532;19.078;2023-06-19T05:22:32;100346.06;;;18.40;100.00
62124;BME280;48110;47.532;19.078;2023-06-19T05:25:39;100351.19;;;18.23;100.00
62124;BME280;48110;47.532;19.078;2023-06-19T05:28:42;100361.09;;;17.92;100.00
62124;BME280;48110;47.532;19.078;2023-06-19T05:31:46;100356.00;;;17.77;100.00
62124;BME280;48110;47.532;19.078;2023-06-19T05:34:50;100352.53;;;17.76;100.00
62124;BME280;48110;47.532;19.078;2023-06-19T05:37:57;100352.53;;;17.76;100.00
62124;BME280;48110;47.532;19.078;2023-06-19T05:41:02;100355.25;;;18.01;100.00
62124;BME280;48110;47.532;19.078;2023-06-19T05:44:07;100365.53;;;18.36;100.00
62124;BME280;48110;47.532;19.078;2023-06-19T05:47:10;100359.63;;;18.52;100.00
62124;BME280;48110;47.532;19.078;2023-06-19T05:50:15;100356.47;;;18.61;100.00
62124;BME280;48110;47.532;19.078;2023-06-19T05:53:18;100358.19;;;18.74;100.00
62124;BME280;48110;47.532;19.078;2023-06-19T05:56:21;100362.19;;;19.08;100.00
62124;BME280;48110;47.532;19.078;2023-06-19T05:59:24;100360.56;;;19.25;100.00
62124;BME280;48110;47.532;19.078;2023-06-19T06:02:29;100366.78;;;19.44;100.00
62124;BME280;48110;47.532;19.078;2023-06-19T06:05:34;100376.25;;;19.46;100.00
62124;BME280;48110;47.532;19.078;2023-06-19T06:08:40;100383.06;;;19.67;100.00
62124;BME280;48110;47.532;19.078;2023-06-19T06:11:44;100373.66;;;19.88;100.00
62124;BME280;48110;47.532;19.078;2023-06-19T06:14:50;100380.72;;;20.01;100.00
62124;BME280;48110;47.532;19.078;2023-06-19T06:17:53;100374.44;;;20.07;100.00
62124;BME280;48110;47.532;19.078;2023-06-19T06:20:56;100378.31;;;20.11;100.00
62124;BME280;48110;47.532;19.078;2023-06-19T06:24:03;100373.53;;;20.24;100.00
62124;BME280;48110;47.532;19.078;2023-06-19T06:27:06;100367.59;;;20.34;100.00
62124;BME280;48110;47.532;19.078;2023-06-19T06:30:12;100372.91;;;20.64;100.00
62124;BME280;48110;47.532;19.078;2023-06-19T06:33:17;100371.28;;;20.86;100.00
62124;BME280;48110;47.532;19.078;2023-06-19T06:36:22;100376.91;;;20.96;98.67
62124;BME280;48110;47.532;19.078;2023-06-19T06:39:37;100376.66;;;21.09;100.00
62124;BME280;48110;47.532;19.078;2023-06-19T06:42:43;100378.88;;;21.36;95.59
62124;BME280;48110;47.532;19.078;2023-06-19T06:45:46;100385.06;;;21.48;95.90
62124;BME280;48110;47.532;19.078;2023-06-19T06:48:50;100390.16;;;21.73;94.66
62124;BME280;48110;47.532;19.078;2023-06-19T06:51:54;100382.87;;;21.73;89.62
62124;BME280;48110;47.532;19.078;2023-06-19T06:55:00;100386.56;;;21.95;88.12
62124;BME280;48110;47.532;19.078;2023-06-19T06:58:04;100388.81;;;22.15;86.41
62124;BME280;48110;47.532;19.078;2023-06-19T07:01:08;100384.97;;;22.28;82.94
62124;BME280;48110;47.532;19.078;2023-06-19T07:04:11;100384.88;;;22.23;86.77
62124;BME280;48110;47.532;19.078;2023-06-19T07:07:15;100381.12;;;22.57;83.48
62124;BME280;48110;47.532;19.078;2023-06-19T07:10:20;100381.72;;;22.92;76.39
62124;BME280;48110;47.532;19.078;2023-06-19T07:13:25;100389.19;;;22.85;77.75
62124;BME280;48110;47.532;19.078;2023-06-19T07:16:29;100383.16;;;23.17;76.61
62124;BME280;48110;47.532;19.078;2023-06-19T07:19:34;100387.28;;;23.24;75.34
62124;BME280;48110;47.532;19.078;2023-06-19T07:22:37;100386.53;;;23.46;77.22
62124;BME280;48110;47.532;19.078;2023-06-19T07:25:41;100381.53;;;23.81;70.79
62124;BME280;48110;47.532;19.078;2023-06-19T07:28:45;100380.94;;;24.28;68.64
62124;BME280;48110;47.532;19.078;2023-06-19T07:31:48;100376.56;;;24.53;65.91
62124;BME280;48110;47.532;19.078;2023-06-19T07:34:53;100373.66;;;25.02;64.23
62124;BME280;48110;47.532;19.078;2023-06-19T07:37:56;100371.28;;;24.79;64.80
62124;BME280;48110;47.532;19.078;2023-06-19T07:40:59;100379.91;;;25.55;62.68
62124;BME280;48110;47.532;19.078;2023-06-19T07:44:04;100379.75;;;26.07;58.64
62124;BME280;48110;47.532;19.078;2023-06-19T07:47:08;100390.88;;;27.27;55.63
62124;BME280;48110;47.532;19.078;2023-06-19T07:50:12;100383.50;;;27.27;51.76
62124;BME280;48110;47.532;19.078;2023-06-19T07:53:16;100381.31;;;27.39;53.58
62124;BME280;48110;47.532;19.078;2023-06-19T07:56:19;100381.59;;;28.70;50.51
62124;BME280;48110;47.532;19.078;2023-06-19T07:59:22;100375.31;;;28.35;48.33
62124;BME280;48110;47.532;19.078;2023-06-19T08:02:26;100373.28;;;28.51;47.48
62124;BME280;48110;47.532;19.078;2023-06-19T08:05:30;100369.88;;;29.83;45.18
62124;BME280;48110;47.532;19.078;2023-06-19T08:08:35;100377.50;;;30.75;42.93
62124;BME280;48110;47.532;19.078;2023-06-19T08:11:39;100372.97;;;30.97;42.84
62124;BME280;48110;47.532;19.078;2023-06-19T08:14:42;100372.37;;;31.28;42.19
62124;BME280;48110;47.532;19.078;2023-06-19T08:17:48;100372.69;;;29.78;43.71
62124;BME280;48110;47.532;19.078;2023-06-19T08:20:52;100370.09;;;32.20;39.62
62124;BME280;48110;47.532;19.078;2023-06-19T08:23:56;100371.44;;;32.23;38.08
62124;BME280;48110;47.532;19.078;2023-06-19T08:27:01;100363.09;;;32.59;37.85
62124;BME280;48110;47.532;19.078;2023-06-19T08:30:07;100366.69;;;32.90;37.29
62124;BME280;48110;47.532;19.078;2023-06-19T08:33:12;100369.97;;;31.13;40.38
62124;BME280;48110;47.532;19.078;2023-06-19T08:36:17;100371.91;;;30.15;42.68
62124;BME280;48110;47.532;19.078;2023-06-19T08:39:20;100370.06;;;31.21;39.81
62124;BME280;48110;47.532;19.078;2023-06-19T08:42:25;100368.53;;;32.50;38.28
62124;BME280;48110;47.532;19.078;2023-06-19T08:45:28;100367.50;;;32.91;36.95
62124;BME280;48110;47.532;19.078;2023-06-19T08:48:37;100367.66;;;32.41;38.36
62124;BME280;48110;47.532;19.078;2023-06-19T08:51:41;100369.03;;;33.14;36.86
62124;BME280;48110;47.532;19.078;2023-06-19T08:54:46;100365.38;;;32.12;37.69
62124;BME280;48110;47.532;19.078;2023-06-19T08:57:50;100359.47;;;31.01;40.30
62124;BME280;48110;47.532;19.078;2023-06-19T09:00:58;100357.34;;;32.69;38.91
62124;BME280;48110;47.532;19.078;2023-06-19T09:04:10;100358.19;;;33.48;36.19
62124;BME280;48110;47.532;19.078;2023-06-19T09:07:15;100361.19;;;34.21;35.25
62124;BME280;48110;47.532;19.078;2023-06-19T09:10:18;100364.34;;;34.74;33.22
62124;BME280;48110;47.532;19.078;2023-06-19T09:13:23;100352.16;;;33.29;35.06
62124;BME280;48110;47.532;19.078;2023-06-19T09:16:41;100353.19;;;34.71;31.76
62124;BME280;48110;47.532;19.078;2023-06-19T09:19:53;100359.75;;;34.87;31.17
62124;BME280;48110;47.532;19.078;2023-06-19T09:23:00;100354.81;;;35.10;32.05
62124;BME280;48110;47.532;19.078;2023-06-19T09:26:04;100345.56;;;35.44;32.40
62124;BME280;48110;47.532;19.078;2023-06-19T09:29:18;100363.06;;;35.10;32.29
62124;BME280;48110;47.532;19.078;2023-06-19T09:32:28;100359.06;;;35.87;30.46
62124;BME280;48110;47.532;19.078;2023-06-19T09:35:31;100342.78;;;35.44;29.01
62124;BME280;48110;47.532;19.078;2023-06-19T09:38:38;100346.91;;;33.84;30.69
62124;BME280;48110;47.532;19.078;2023-06-19T09:41:44;100336.63;;;34.71;29.32
62124;BME280;48110;47.532;19.078;2023-06-19T09:44:51;100348.69;;;35.84;27.55
62124;BME280;48110;47.532;19.078;2023-06-19T09:48:00;100338.44;;;36.26;28.83
62124;BME280;48110;47.532;19.078;2023-06-19T09:51:18;100338.63;;;37.11;28.36
62124;BME280;48110;47.532;19.078;2023-06-19T09:54:25;100341.69;;;36.85;27.56
62124;BME280;48110;47.532;19.078;2023-06-19T09:57:34;100335.97;;;37.26;26.58
62124;BME280;48110;47.532;19.078;2023-06-19T10:00:42;100330.84;;;36.80;27.70
62124;BME280;48110;47.532;19.078;2023-06-19T10:03:46;100321.09;;;35.54;29.15
62124;BME280;48110;47.532;19.078;2023-06-19T10:06:50;100326.19;;;36.59;26.90
62124;BME280;48110;47.532;19.078;2023-06-19T10:09:58;100314.03;;;36.73;27.01
62124;BME280;48110;47.532;19.078;2023-06-19T10:13:13;100313.66;;;37.59;27.07
62124;BME280;48110;47.532;19.078;2023-06-19T10:16:23;100304.00;;;38.37;25.32
62124;BME280;48110;47.532;19.078;2023-06-19T10:19:32;100309.81;;;39.41;24.78
62124;BME280;48110;47.532;19.078;2023-06-19T10:22:37;100310.31;;;40.20;24.12
62124;BME280;48110;47.532;19.078;2023-06-19T10:25:42;100305.50;;;38.18;25.96
62124;BME280;48110;47.532;19.078;2023-06-19T10:28:49;100305.75;;;37.85;26.85
62124;BME280;48110;47.532;19.078;2023-06-19T10:31:53;100301.19;;;39.11;24.17
62124;BME280;48110;47.532;19.078;2023-06-19T10:34:57;100300.22;;;37.85;27.03
62124;BME280;48110;47.532;19.078;2023-06-19T10:38:00;100296.28;;;37.34;27.03
62124;BME280;48110;47.532;19.078;2023-06-19T10:41:05;100295.78;;;39.19;24.99
62124;BME280;48110;47.532;19.078;2023-06-19T10:44:09;100290.94;;;40.69;23.11
62124;BME280;48110;47.532;19.078;2023-06-19T10:47:16;100294.16;;;40.71;23.38
62124;BME280;48110;47.532;19.078;2023-06-19T10:50:19;100294.16;;;40.98;22.53
62124;BME280;48110;47.532;19.078;2023-06-19T10:53:26;100287.56;;;40.83;23.00
62124;BME280;48110;47.532;19.078;2023-06-19T10:56:29;100287.19;;;41.63;22.85
62124;BME280;48110;47.532;19.078;2023-06-19T10:59:34;100289.47;;;41.28;22.06
62124;BME280;48110;47.532;19.078;2023-06-19T11:02:41;100278.19;;;39.65;24.33
62124;BME280;48110;47.532;19.078;2023-06-19T11:05:48;100292.00;;;41.96;21.24
62124;BME280;48110;47.532;19.078;2023-06-19T11:08:51;100286.03;;;41.38;22.39
62124;BME280;48110;47.532;19.078;2023-06-19T11:11:56;100282.78;;;40.15;22.95
62124;BME280;48110;47.532;19.078;2023-06-19T11:15:03;100277.72;;;39.09;24.42
62124;BME280;48110;47.532;19.078;2023-06-19T11:18:06;100285.16;;;40.81;23.39
62124;BME280;48110;47.532;19.078;2023-06-19T11:21:10;100275.03;;;41.79;21.15
62124;BME280;48110;47.532;19.078;2023-06-19T11:24:15;100275.72;;;39.99;23.41
62124;BME280;48110;47.532;19.078;2023-06-19T11:27:23;100263.41;;;37.33;27.16
62124;BME280;48110;47.532;19.078;2023-06-19T11:30:32;100261.63;;;37.53;26.84
62124;BME280;48110;47.532;19.078;2023-06-19T11:33:35;100260.81;;;39.68;24.04
62124;BME280;48110;47.532;19.078;2023-06-19T11:36:42;100267.31;;;40.83;23.55
62124;BME280;48110;47.532;19.078;2023-06-19T11:39:46;100263.38;;;42.40;21.71
62124;BME280;48110;47.532;19.078;2023-06-19T11:42:52;100264.19;;;42.03;20.87
62124;BME280;48110;47.532;19.078;2023-06-19T11:46:06;100250.63;;;41.69;21.77
62124;BME280;48110;47.532;19.078;2023-06-19T11:49:17;100255.34;;;41.35;21.02
62124;BME280;48110;47.532;19.078;2023-06-19T11:52:21;100249.22;;;38.77;24.39
62124;BME280;48110;47.532;19.078;2023-06-19T11:55:25;100241.69;;;38.31;25.96
62124;BME280;48110;47.532;19.078;2023-06-19T11:58:29;100241.06;;;39.35;23.87
62124;BME280;48110;47.532;19.078;2023-06-19T12:01:33;100247.56;;;40.00;23.51
62124;BME280;48110;47.532;19.078;2023-06-19T12:04:37;100242.03;;;41.47;23.05
62124;BME280;48110;47.532;19.078;2023-06-19T12:07:40;100250.44;;;44.45;19.16
62124;BME280;48110;47.532;19.078;2023-06-19T12:10:44;100252.25;;;43.63;19.54
62124;BME280;48110;47.532;19.078;2023-06-19T12:13:47;100241.19;;;40.42;22.42
62124;BME280;48110;47.532;19.078;2023-06-19T12:16:51;100237.47;;;42.90;20.44
62124;BME280;48110;47.532;19.078;2023-06-19T12:19:54;100241.63;;;44.86;18.59
62124;BME280;48110;47.532;19.078;2023-06-19T12:22:59;100235.94;;;45.28;17.69
62124;BME280;48110;47.532;19.078;2023-06-19T12:26:03;100230.31;;;45.32;17.81
62124;BME280;48110;47.532;19.078;2023-06-19T12:29:07;100226.81;;;43.07;19.54
62124;BME280;48110;47.532;19.078;2023-06-19T12:32:11;100227.84;;;43.50;19.64
62124;BME280;48110;47.532;19.078;2023-06-19T12:35:15;100219.94;;;45.25;17.80
62124;BME280;48110;47.532;19.078;2023-06-19T12:38:20;100221.66;;;44.55;18.24
62124;BME280;48110;47.532;19.078;2023-06-19T12:41:25;100217.63;;;45.06;17.62
62124;BME280;48110;47.532;19.078;2023-06-19T12:44:29;100204.41;;;42.96;19.99
62124;BME280;48110;47.532;19.078;2023-06-19T12:47:35;100210.13;;;42.12;21.39
62124;BME280;48110;47.532;19.078;2023-06-19T12:50:39;100200.75;;;41.93;19.93
62124;BME280;48110;47.532;19.078;2023-06-19T12:53:43;100205.12;;;45.28;18.14
62124;BME280;48110;47.532;19.078;2023-06-19T12:56:48;100202.84;;;42.99;19.48
62124;BME280;48110;47.532;19.078;2023-06-19T12:59:54;100194.25;;;43.39;18.73
62124;BME280;48110;47.532;19.078;2023-06-19T13:02:57;100194.34;;;43.53;19.49
62124;BME280;48110;47.532;19.078;2023-06-19T13:06:01;100187.50;;;42.68;20.35
62124;BME280;48110;47.532;19.078;2023-06-19T13:09:06;100186.72;;;42.71;20.58
62124;BME280;48110;47.532;19.078;2023-06-19T13:12:11;100190.91;;;43.05;20.24
62124;BME280;48110;47.532;19.078;2023-06-19T13:15:14;100187.25;;;45.77;17.74
62124;BME280;48110;47.532;19.078;2023-06-19T13:18:19;100186.09;;;44.52;18.05
62124;BME280;48110;47.532;19.078;2023-06-19T13:21:23;100181.19;;;41.19;21.03
62124;BME280;48110;47.532;19.078;2023-06-19T13:24:28;100167.41;;;38.36;25.04
62124;BME280;48110;47.532;19.078;2023-06-19T13:27:32;100159.22;;;36.48;25.96
62124;BME280;48110;47.532;19.078;2023-06-19T13:30:38;100162.28;;;35.45;27.36
62124;BME280;48110;47.532;19.078;2023-06-19T13:33:42;100161.09;;;33.70;29.76
62124;BME280;48110;47.532;19.078;2023-06-19T13:36:47;100155.91;;;33.16;30.81
62124;BME280;48110;47.532;19.078;2023-06-19T13:39:53;100156.72;;;33.08;30.91
62124;BME280;48110;47.532;19.078;2023-06-19T13:42:58;100161.03;;;32.75;30.92
62124;BME280;48110;47.532;19.078;2023-06-19T13:46:05;100169.75;;;34.06;30.73
62124;BME280;48110;47.532;19.078;2023-06-19T13:49:11;100159.56;;;33.89;30.13
62124;BME280;48110;47.532;19.078;2023-06-19T13:52:17;100154.72;;;32.66;32.02
62124;BME280;48110;47.532;19.078;2023-06-19T13:55:22;100159.91;;;32.28;32.52
62124;BME280;48110;47.532;19.078;2023-06-19T13:58:27;100160.38;;;31.68;34.44
62124;BME280;48110;47.532;19.078;2023-06-19T14:01:32;100154.53;;;31.61;33.91
62124;BME280;48110;47.532;19.078;2023-06-19T14:04:38;100155.00;;;31.63;33.95
62124;BME280;48110;47.532;19.078;2023-06-19T14:07:42;100155.13;;;32.51;34.33
62124;BME280;48110;47.532;19.078;2023-06-19T14:10:47;100158.87;;;35.27;29.18
62124;BME280;48110;47.532;19.078;2023-06-19T14:13:51;100164.06;;;38.78;23.84
62124;BME280;48110;47.532;19.078;2023-06-19T14:16:56;100154.69;;;40.24;23.28
62124;BME280;48110;47.532;19.078;2023-06-19T14:20:01;100165.72;;;41.55;21.54
62124;BME280;48110;47.532;19.078;2023-06-19T14:23:09;100154.34;;;41.34;20.59
62124;BME280;48110;47.532;19.078;2023-06-19T14:26:13;100153.56;;;39.41;23.67
62124;BME280;48110;47.532;19.078;2023-06-19T14:29:18;100147.22;;;36.56;25.85
62124;BME280;48110;47.532;19.078;2023-06-19T14:32:23;100148.22;;;34.67;28.15
62124;BME280;48110;47.532;19.078;2023-06-19T14:35:28;100148.59;;;36.87;25.77
62124;BME280;48110;47.532;19.078;2023-06-19T14:38:34;100146.09;;;35.43;26.75
62124;BME280;48110;47.532;19.078;2023-06-19T14:41:38;100150.53;;;33.80;27.99
62124;BME280;48110;47.532;19.078;2023-06-19T14:44:44;100146.47;;;32.66;30.42
62124;BME280;48110;47.532;19.078;2023-06-19T14:47:49;100144.25;;;32.28;32.01
62124;BME280;48110;47.532;19.078;2023-06-19T14:50:55;100145.50;;;32.70;30.78
62124;BME280;48110;47.532;19.078;2023-06-19T14:54:00;100141.38;;;36.34;25.53
62124;BME280;48110;47.532;19.078;2023-06-19T14:57:06;100155.03;;;39.35;23.75
62124;BME280;48110;47.532;19.078;2023-06-19T15:00:12;100153.47;;;39.99;22.26
62124;BME280;48110;47.532;19.078;2023-06-19T15:03:18;100148.41;;;37.48;25.50
62124;BME280;48110;47.532;19.078;2023-06-19T15:06:23;100141.03;;;35.66;26.29
62124;BME280;48110;47.532;19.078;2023-06-19T15:09:29;100147.31;;;36.96;26.02
62124;BME280;48110;47.532;19.078;2023-06-19T15:12:35;100144.69;;;38.62;23.42
62124;BME280;48110;47.532;19.078;2023-06-19T15:15:42;100139.28;;;41.76;21.51
62124;BME280;48110;47.532;19.078;2023-06-19T15:18:48;100144.06;;;43.64;19.75
62124;BME280;48110;47.532;19.078;2023-06-19T15:21:53;100144.53;;;43.94;19.27
62124;BME280;48110;47.532;19.078;2023-06-19T15:24:59;100147.28;;;44.76;17.91
62124;BME280;48110;47.532;19.078;2023-06-19T15:28:04;100136.34;;;41.61;21.62
62124;BME280;48110;47.532;19.078;2023-06-19T15:31:11;100140.66;;;41.55;20.95
62124;BME280;48110;47.532;19.078;2023-06-19T15:34:16;100137.53;;;38.29;23.94
62124;BME280;48110;47.532;19.078;2023-06-19T15:37:21;100133.22;;;35.80;27.12
62124;BME280;48110;47.532;19.078;2023-06-19T15:40:30;100137.75;;;36.09;26.53
62124;BME280;48110;47.532;19.078;2023-06-19T15:43:38;100129.34;;;35.60;26.68
62124;BME280;48110;47.532;19.078;2023-06-19T15:46:44;100127.63;;;36.01;26.80
62124;BME280;48110;47.532;19.078;2023-06-19T15:49:49;100132.81;;;36.87;26.33
62124;BME280;48110;47.532;19.078;2023-06-19T15:52:54;100141.06;;;35.04;28.30